Grand Prairie, TX

4:19 AM CDT on August 30, 2014 (GMT -0500)
Grand Prairie Municipal | Change Station
CLOSE
Current Station
Airport
Location: Grand Prairie,
Elevation: 591 ft
Nearby Weather Stations

Elev 591 ft 32.70 °N, 97.05 °W | Updated 4 minutes ago

Scattered Clouds
Scattered Clouds
77 °F
Feels Like 77 °F
N
6
Wind Variable Wind from SSE

Today
High -- | Low -- °F
--% Chance of Precip.
Yesterday
High -- | Low -- °F
Precip. -- in
7:01 AM 7:55 PM
Waxing Crescent, 20% visible
Pressure 29.96 in
Visibility 10.0 miles
Clouds Scattered Clouds 8500 ft
Dew Point 69 °F
Humidity 76%
Rainfall 0.00 in
Snow Depth Not available.
UV 0 out of 12
Pollen 9.50 out of 12
Ozone Good
PM2.5 Good
Flu Activity Not available.
METAR KGPM 300915Z AUTO 15005KT 10SM SCT085 25/21 A2996 RMK AO2 T02510207

More Conditions Fewer Conditions

Pressure 29.96 in
Visibility 10.0 miles
Clouds Scattered Clouds 8500 ft
Dew Point 69 °F
Humidity 76%
Rainfall 0.00 in
Snow Depth Not available.
UV 0 out of 12
Pollen 9.50 out of 12
Ozone Good
PM2.5 Good
Flu Activity Not available.
METAR KGPM 300915Z AUTO 15005KT 10SM SCT085 25/21 A2996 RMK AO2 T02510207

More Conditions Fewer Conditions

10-Day Weather Forecast

Almanac

Astronomy

Aug. 30, 2014 Rise Set
Actual Time 7:01 AM CDT 7:55 PM CDT
Civil Twilight 6:36 AM CDT 8:20 PM CDT
Nautical Twilight 6:06 AM CDT 8:50 PM CDT
Astronomical Twilight 5:35 AM CDT 9:20 PM CDT
Moon 11:32 AM CDT 10:48 PM CDT
Length of Visible Light 13h 44m
Length of Day
12h 53m
Tomorrow will be 1m 55s shorter.
Waxing Crescent, 20% of the Moon is Illuminated
Today
Waxing Crescent
Sep 2
First Quarter
Sep 8
Full
Sep 15
Last Quarter
Sep 24
New

Today's Extremes

State Highs State Lows

Community

WunderPhotos

Upload Photos

1,748,475 photos uploaded!

Nearby

Air Quality

  Air Quality AQ Index Pollutant
Yesterday Moderate
OZONE
Yesterday Good
PM2.5
Current Good
PM2.5
Current Good
OZONE
Saturday Good
OZONE
Saturday Good
PM10
Sunday Good
OZONE
Sunday Good
PM10
Monday Good
OZONE
Monday Good
PM10
Tuesday Good
OZONE
Tuesday Good
PM10

Snow Depth

Station Depth Elevation
No new snow has been reported.

Earthquake Activity

City Distance Mag. Time & Date
No recent earthquake activity has been reported nearby.
Minimum magnitude displayed is 2.5.

Coastal Water Temperatures

Place Temperature
No Stations Reporting

Nearby Weather Stations